Time;durP1;ratioP1;P1;durP2;ratioP2;P2;SDS_P1;SDS_P2;PMS_P1;PMS_P2;Temp;Humidity;BMP_temperature;BMP_pressure;BME280_temperature;BME280_humidity;BME280_pressure;Samples;Min_cycle;Max_cycle;Signal;HPM_P1;HPM_P2
2021/12/06 00:00:51;;;;;;;26.33;19.92;;;;;;;;;;4841970;29;20449;-77
2021/12/06 00:03:21;;;;;;;39.15;25.58;;;;;;;;;;4841403;29;20132;-77
2021/12/06 00:05:47;;;;;;;30.92;22.35;;;;;;;;;;4842162;29;20065;-76
2021/12/06 00:08:13;;;;;;;43.92;28.75;;;;;;;;;;4840795;29;20116;-77
2021/12/06 00:10:40;;;;;;;40.20;30.40;;;;;;;;;;4841878;29;20536;-77
2021/12/06 00:13:06;;;;;;;52.55;36.30;;;;;;;;;;4839035;29;20038;-76
2021/12/06 00:15:33;;;;;;;50.20;32.83;;;;;;;;;;4823418;29;20038;-76
2021/12/06 00:18:00;;;;;;;48.17;33.63;;;;;;;;;;4823492;29;20070;-77
2021/12/06 00:20:26;;;;;;;45.92;32.60;;;;;;;;;;4842150;29;20417;-76
2021/12/06 00:22:53;;;;;;;48.60;34.22;;;;;;;;;;4841506;29;20049;-76
2021/12/06 00:25:19;;;;;;;45.05;31.70;;;;;;;;;;4841160;29;20762;-76
2021/12/06 00:27:45;;;;;;;40.80;30.40;;;;;;;;;;4841487;29;20480;-77
2021/12/06 00:30:15;;;;;;;56.78;37.95;;;;;;;;;;4826516;29;20034;-77
2021/12/06 00:32:41;;;;;;;61.03;38.47;;;;;;;;;;4823213;29;20565;-77
2021/12/06 00:35:12;;;;;;;42.13;28.85;;;;;;;;;;4834336;29;20495;-76
2021/12/06 00:37:45;;;;;;;45.95;32.05;;;;;;;;;;4841913;29;20030;-76
2021/12/06 00:40:11;;;;;;;76.45;46.20;;;;;;;;;;4840110;29;20480;-76
2021/12/06 00:42:37;;;;;;;42.50;29.98;;;;;;;;;;4841161;29;20038;-77
2021/12/06 00:45:04;;;;;;;69.55;43.92;;;;;;;;;;4840683;29;20037;-77
2021/12/06 00:47:30;;;;;;;50.80;35.83;;;;;;;;;;4828599;29;20156;-77
2021/12/06 00:49:56;;;;;;;46.33;34.90;;;;;;;;;;4832039;29;20038;-76
2021/12/06 00:52:22;;;;;;;42.38;30.33;;;;;;;;;;4833938;29;20621;-76
2021/12/06 00:54:49;;;;;;;40.60;29.65;;;;;;;;;;4826447;29;20063;-76
2021/12/06 00:57:15;;;;;;;53.92;33.83;;;;;;;;;;4838419;29;20083;-77
2021/12/06 00:59:42;;;;;;;47.58;28.90;;;;;;;;;;4837123;29;20088;-76
2021/12/06 01:02:09;;;;;;;48.35;36.58;;;;;;;;;;4841025;29;20555;-77
2021/12/06 01:04:36;;;;;;;50.92;36.58;;;;;;;;;;4840383;29;20062;-76
2021/12/06 01:07:03;;;;;;;55.50;41.08;;;;;;;;;;4841146;29;20079;-76
2021/12/06 01:09:29;;;;;;;47.78;37.08;;;;;;;;;;4840309;29;20750;-76
2021/12/06 01:11:55;;;;;;;48.17;34.50;;;;;;;;;;4840915;29;20045;-76
2021/12/06 01:14:21;;;;;;;49.78;32.55;;;;;;;;;;4840808;29;20034;-76
2021/12/06 01:16:48;;;;;;;53.67;36.47;;;;;;;;;;4822303;29;20045;-77
2021/12/06 01:19:14;;;;;;;49.15;36.28;;;;;;;;;;4822469;29;20042;-77
2021/12/06 01:21:54;;;;;;;41.42;31.88;;;;;;;;;;4821582;29;20045;-77
2021/12/06 01:24:27;;;;;;;48.35;35.15;;;;;;;;;;4822161;29;20042;-77
2021/12/06 01:29:59;;;;;;;40.50;30.13;;;;;;;;;;4840704;29;20048;-76
2021/12/06 01:40:46;;;;;;;35.88;26.00;;;;;;;;;;4839421;29;20176;-77
2021/12/06 01:43:12;;;;;;;39.35;29.13;;;;;;;;;;4840106;29;20046;-76
2021/12/06 01:45:38;;;;;;;36.50;25.65;;;;;;;;;;4839645;29;20034;-77
2021/12/06 01:48:04;;;;;;;30.70;23.30;;;;;;;;;;4840296;29;20571;-76
2021/12/06 01:50:30;;;;;;;46.08;30.80;;;;;;;;;;4840319;29;20460;-77
2021/12/06 01:52:58;;;;;;;44.97;30.45;;;;;;;;;;4839784;29;20475;-76
2021/12/06 01:55:26;;;;;;;38.92;27.00;;;;;;;;;;4840068;29;20038;-76
2021/12/06 01:57:53;;;;;;;56.97;37.88;;;;;;;;;;4839980;29;20046;-77
2021/12/06 02:00:24;;;;;;;42.35;29.05;;;;;;;;;;4839792;29;20058;-76
2021/12/06 02:02:50;;;;;;;44.22;30.63;;;;;;;;;;4839617;29;20053;-77
2021/12/06 02:05:16;;;;;;;41.42;30.45;;;;;;;;;;4840165;29;20041;-76
2021/12/06 02:07:42;;;;;;;38.55;28.92;;;;;;;;;;4839343;29;20038;-76
2021/12/06 02:10:09;;;;;;;38.53;27.27;;;;;;;;;;4840099;29;20159;-76
2021/12/06 02:12:35;;;;;;;36.20;25.42;;;;;;;;;;4839231;29;20090;-77
2021/12/06 02:15:22;;;;;;;39.05;28.20;;;;;;;;;;4840135;29;20041;-77
2021/12/06 02:17:57;;;;;;;39.33;27.17;;;;;;;;;;4839063;29;20118;-77
2021/12/06 02:20:27;;;;;;;37.53;27.73;;;;;;;;;;4839433;29;20072;-77
2021/12/06 02:22:54;;;;;;;46.05;33.40;;;;;;;;;;4838821;29;20034;-77
2021/12/06 02:25:20;;;;;;;36.58;27.33;;;;;;;;;;4839682;29;20044;-77
2021/12/06 02:27:48;;;;;;;37.25;28.13;;;;;;;;;;4839065;29;20042;-77
2021/12/06 02:30:15;;;;;;;33.90;23.55;;;;;;;;;;4825319;29;20750;-77
2021/12/06 02:32:41;;;;;;;36.38;27.05;;;;;;;;;;4831440;29;20041;-76
2021/12/06 02:35:10;;;;;;;36.30;27.30;;;;;;;;;;4829604;29;20042;-76
2021/12/06 02:37:37;;;;;;;47.83;31.77;;;;;;;;;;4824501;29;20075;-76
2021/12/06 02:40:09;;;;;;;43.80;31.88;;;;;;;;;;4821601;29;20063;-76
2021/12/06 02:42:35;;;;;;;34.42;24.13;;;;;;;;;;4828045;29;20042;-76
2021/12/06 02:45:01;;;;;;;39.25;26.33;;;;;;;;;;4828910;29;20037;-76
2021/12/06 02:47:27;;;;;;;36.80;25.35;;;;;;;;;;4828299;29;20466;-76
2021/12/06 02:49:53;;;;;;;38.08;24.88;;;;;;;;;;4837136;29;20082;-76
2021/12/06 02:52:19;;;;;;;47.45;31.23;;;;;;;;;;4838577;29;20492;-76
2021/12/06 02:54:54;;;;;;;36.80;28.48;;;;;;;;;;4824758;29;20437;-76
2021/12/06 02:57:31;;;;;;;38.58;27.60;;;;;;;;;;4820988;29;20226;-77
2021/12/06 02:59:57;;;;;;;40.25;28.63;;;;;;;;;;4834519;29;20050;-76
2021/12/06 03:02:23;;;;;;;38.08;27.30;;;;;;;;;;4838793;29;20045;-76
2021/12/06 03:04:50;;;;;;;31.90;23.75;;;;;;;;;;4838206;29;20094;-77
2021/12/06 03:07:20;;;;;;;35.97;27.77;;;;;;;;;;4839060;29;20448;-77
2021/12/06 03:09:51;;;;;;;31.85;22.33;;;;;;;;;;4838583;29;20557;-76
2021/12/06 03:12:18;;;;;;;33.78;23.70;;;;;;;;;;4839376;29;20426;-77
2021/12/06 03:14:46;;;;;;;37.45;24.38;;;;;;;;;;4838581;29;20048;-76
2021/12/06 03:17:14;;;;;;;38.13;25.67;;;;;;;;;;4839120;29;20083;-76
2021/12/06 03:19:40;;;;;;;36.55;25.77;;;;;;;;;;4838548;29;20050;-77
2021/12/06 03:22:08;;;;;;;50.22;31.95;;;;;;;;;;4838647;29;20059;-77
2021/12/06 03:24:34;;;;;;;43.50;29.60;;;;;;;;;;4838060;29;20040;-77
2021/12/06 03:27:01;;;;;;;36.45;26.27;;;;;;;;;;4838993;29;20129;-77
2021/12/06 03:29:28;;;;;;;47.70;32.10;;;;;;;;;;4833705;29;20042;-76
2021/12/06 03:31:54;;;;;;;46.35;30.13;;;;;;;;;;4835770;29;20545;-77
2021/12/06 03:34:21;;;;;;;47.25;31.85;;;;;;;;;;4831887;29;20814;-77
2021/12/06 03:36:48;;;;;;;43.45;31.02;;;;;;;;;;4827768;29;20065;-77
2021/12/06 03:39:20;;;;;;;49.30;33.08;;;;;;;;;;4838476;29;20087;-77
2021/12/06 03:41:46;;;;;;;;;;;;;;;;;;4838621;29;20134;-77
2021/12/06 03:44:12;;;;;;;45.28;29.92;;;;;;;;;;4838795;29;20003;-76
2021/12/06 03:46:39;;;;;;;50.22;35.13;;;;;;;;;;4838217;29;20037;-76
2021/12/06 03:49:12;;;;;;;43.63;30.67;;;;;;;;;;4838623;29;20058;-77
2021/12/06 03:51:39;;;;;;;68.93;40.10;;;;;;;;;;4838171;29;20041;-76
2021/12/06 03:54:05;;;;;;;61.10;38.50;;;;;;;;;;4822286;29;20911;-77
2021/12/06 03:56:31;;;;;;;44.35;29.20;;;;;;;;;;4838189;29;20042;-77
2021/12/06 03:58:57;;;;;;;41.63;28.33;;;;;;;;;;4839277;29;20045;-77
2021/12/06 04:01:23;;;;;;;49.05;32.67;;;;;;;;;;4837827;29;20056;-76
2021/12/06 04:03:50;;;;;;;36.03;26.02;;;;;;;;;;4840081;29;20049;-76
2021/12/06 04:06:16;;;;;;;38.88;27.88;;;;;;;;;;4841472;29;20057;-76
2021/12/06 04:08:42;;;;;;;48.65;32.25;;;;;;;;;;4841808;29;20034;-76
2021/12/06 04:11:08;;;;;;;41.50;30.52;;;;;;;;;;4841948;29;20673;-77
2021/12/06 04:13:35;;;;;;;40.00;29.73;;;;;;;;;;4841359;29;20034;-76
2021/12/06 04:16:03;;;;;;;49.17;32.53;;;;;;;;;;4842211;29;20442;-77
2021/12/06 04:18:29;;;;;;;45.63;32.83;;;;;;;;;;4841339;29;20033;-76
2021/12/06 04:20:55;;;;;;;38.78;28.67;;;;;;;;;;4842001;29;20113;-77
2021/12/06 04:23:21;;;;;;;40.80;27.25;;;;;;;;;;4841258;29;20046;-77
2021/12/06 04:25:48;;;;;;;36.47;26.35;;;;;;;;;;4842313;29;20066;-77
2021/12/06 04:28:15;;;;;;;39.08;29.10;;;;;;;;;;4841087;29;20042;-77
2021/12/06 04:30:42;;;;;;;43.55;32.45;;;;;;;;;;4841877;29;20040;-77
2021/12/06 04:33:08;;;;;;;55.20;37.63;;;;;;;;;;4840636;29;20845;-77
2021/12/06 04:35:35;;;;;;;52.50;34.90;;;;;;;;;;4841504;29;20071;-76
2021/12/06 04:38:01;;;;;;;64.63;41.45;;;;;;;;;;4840306;29;20052;-77
2021/12/06 04:40:27;;;;;;;63.00;40.58;;;;;;;;;;4823587;29;20513;-77
2021/12/06 04:42:54;;;;;;;48.72;33.35;;;;;;;;;;4841481;29;20038;-76
2021/12/06 04:45:21;;;;;;;55.53;39.72;;;;;;;;;;4841592;29;20042;-76
2021/12/06 04:47:47;;;;;;;50.60;35.00;;;;;;;;;;4841022;29;20057;-77
2021/12/06 04:50:14;;;;;;;59.08;39.13;;;;;;;;;;4841357;29;20065;-77
2021/12/06 04:52:40;;;;;;;60.65;37.38;;;;;;;;;;4841007;29;20042;-77
2021/12/06 04:55:10;;;;;;;44.38;30.20;;;;;;;;;;4823454;29;20042;-76
2021/12/06 04:57:39;;;;;;;49.17;32.40;;;;;;;;;;4822762;29;20042;-77
2021/12/06 05:00:13;;;;;;;66.85;39.83;;;;;;;;;;4822461;29;20054;-76
2021/12/06 05:02:39;;;;;;;48.83;32.80;;;;;;;;;;4839872;29;20038;-77
2021/12/06 05:05:11;;;;;;;61.38;39.65;;;;;;;;;;4841081;29;20045;-77
2021/12/06 05:07:39;;;;;;;59.93;37.17;;;;;;;;;;4840631;29;20037;-76
2021/12/06 05:10:06;;;;;;;56.97;35.58;;;;;;;;;;4823731;29;20068;-77
2021/12/06 05:12:33;;;;;;;54.70;37.20;;;;;;;;;;4835416;29;20708;-76
2021/12/06 05:15:00;;;;;;;52.28;36.80;;;;;;;;;;4836796;29;20038;-76
2021/12/06 05:17:28;;;;;;;51.08;33.55;;;;;;;;;;4840775;29;20549;-77
2021/12/06 05:19:55;;;;;;;48.55;32.72;;;;;;;;;;4853701;29;20121;-77
2021/12/06 05:22:21;;;;;;;43.17;30.48;;;;;;;;;;4858951;29;20041;-77
2021/12/06 05:24:47;;;;;;;46.53;32.35;;;;;;;;;;4847556;29;20065;-76
2021/12/06 05:27:14;;;;;;;43.03;32.42;;;;;;;;;;4840388;29;20120;-76
2021/12/06 05:29:45;;;;;;;42.13;29.13;;;;;;;;;;4831330;29;20560;-76
2021/12/06 05:32:11;;;;;;;42.83;30.13;;;;;;;;;;4839623;29;20404;-76
2021/12/06 05:34:40;;;;;;;42.70;28.48;;;;;;;;;;4839603;29;20033;-77
2021/12/06 05:37:07;;;;;;;37.35;24.48;;;;;;;;;;4842753;29;20095;-76
2021/12/06 05:39:33;;;;;;;37.13;25.05;;;;;;;;;;4826734;29;20122;-77
2021/12/06 05:42:01;;;;;;;38.47;25.95;;;;;;;;;;4848594;29;20128;-77
2021/12/06 05:44:28;;;;;;;45.65;33.20;;;;;;;;;;4842199;29;20030;-77
2021/12/06 05:46:54;;;;;;;40.30;28.42;;;;;;;;;;4842263;29;20033;-76
2021/12/06 05:49:21;;;;;;;45.90;34.65;;;;;;;;;;4841190;29;20527;-76
2021/12/06 05:51:47;;;;;;;43.22;30.73;;;;;;;;;;4811594;29;20037;-76
2021/12/06 05:54:13;;;;;;;39.70;27.70;;;;;;;;;;4852193;29;20049;-76
2021/12/06 05:56:39;;;;;;;43.53;29.55;;;;;;;;;;4848792;29;20472;-77
2021/12/06 05:59:05;;;;;;;44.10;33.70;;;;;;;;;;4858559;29;20312;-76
2021/12/06 06:01:31;;;;;;;41.47;30.58;;;;;;;;;;4839649;29;20525;-77
2021/12/06 06:04:01;;;;;;;41.45;31.85;;;;;;;;;;4839957;29;20794;-76
2021/12/06 06:06:28;;;;;;;42.17;30.75;;;;;;;;;;4838379;29;20099;-77
2021/12/06 06:08:54;;;;;;;40.10;29.58;;;;;;;;;;4858299;29;20025;-77
2021/12/06 06:11:20;;;;;;;37.47;28.08;;;;;;;;;;4850947;29;20815;-77
2021/12/06 06:13:46;;;;;;;44.35;30.45;;;;;;;;;;4839176;29;20033;-77
2021/12/06 06:16:17;;;;;;;44.05;29.33;;;;;;;;;;4832786;29;20046;-77
2021/12/06 06:18:43;;;;;;;46.08;30.35;;;;;;;;;;4834108;29;20696;-77
2021/12/06 06:21:09;;;;;;;47.95;31.83;;;;;;;;;;4823969;29;20053;-77
2021/12/06 06:23:35;;;;;;;52.35;36.65;;;;;;;;;;4850254;29;20102;-77
2021/12/06 06:26:01;;;;;;;46.22;28.67;;;;;;;;;;4835940;29;20035;-77
2021/12/06 06:28:28;;;;;;;49.00;29.73;;;;;;;;;;4831894;29;20026;-77
2021/12/06 06:30:54;;;;;;;81.82;40.78;;;;;;;;;;4835226;29;20038;-77
2021/12/06 06:33:21;;;;;;;99.80;47.55;;;;;;;;;;4828500;29;20034;-77
2021/12/06 06:35:47;;;;;;;84.63;42.22;;;;;;;;;;4833963;29;20499;-77
2021/12/06 06:38:13;;;;;;;68.38;39.53;;;;;;;;;;4832494;29;20121;-77
2021/12/06 06:40:39;;;;;;;53.58;32.60;;;;;;;;;;4837672;29;20469;-76
2021/12/06 06:43:06;;;;;;;33.95;23.10;;;;;;;;;;4838485;29;20042;-77
2021/12/06 06:45:32;;;;;;;31.88;21.17;;;;;;;;;;4834712;29;20040;-77
2021/12/06 06:47:58;;;;;;;41.88;23.67;;;;;;;;;;4824205;29;20034;-77
2021/12/06 06:50:24;;;;;;;43.28;27.67;;;;;;;;;;4828524;29;20088;-78
2021/12/06 06:52:51;;;;;;;34.75;22.80;;;;;;;;;;4836425;29;20082;-78
2021/12/06 06:55:17;;;;;;;40.67;27.75;;;;;;;;;;4832114;29;20038;-77
2021/12/06 06:57:44;;;;;;;42.33;27.50;;;;;;;;;;4828934;29;20488;-76
2021/12/06 07:00:12;;;;;;;43.47;29.52;;;;;;;;;;4834182;29;20074;-77
2021/12/06 07:02:38;;;;;;;41.45;26.83;;;;;;;;;;4828719;29;20100;-77
2021/12/06 07:05:04;;;;;;;51.88;31.17;;;;;;;;;;4833295;29;20030;-77
2021/12/06 07:07:30;;;;;;;31.55;20.98;;;;;;;;;;4828287;29;20098;-77
2021/12/06 07:09:57;;;;;;;27.42;16.75;;;;;;;;;;4829585;29;20465;-76
2021/12/06 07:12:23;;;;;;;25.15;16.45;;;;;;;;;;4819806;29;20050;-77
2021/12/06 07:14:49;;;;;;;24.20;18.00;;;;;;;;;;4828553;29;20069;-77
2021/12/06 07:17:16;;;;;;;24.90;19.13;;;;;;;;;;4828599;29;20140;-77
2021/12/06 07:19:42;;;;;;;32.55;21.88;;;;;;;;;;4830657;29;20040;-77
2021/12/06 07:22:08;;;;;;;28.40;18.95;;;;;;;;;;4830130;29;20822;-77
2021/12/06 07:24:35;;;;;;;29.27;20.27;;;;;;;;;;4838560;29;20113;-77
2021/12/06 07:27:01;;;;;;;36.80;24.23;;;;;;;;;;4838331;29;20030;-77
2021/12/06 07:29:27;;;;;;;30.85;20.20;;;;;;;;;;4831410;29;20042;-77
2021/12/06 07:31:53;;;;;;;41.42;28.00;;;;;;;;;;4825712;29;20042;-77
2021/12/06 07:34:19;;;;;;;49.40;32.25;;;;;;;;;;4830890;29;20477;-77
2021/12/06 07:36:45;;;;;;;47.53;32.67;;;;;;;;;;4828214;29;20049;-77
2021/12/06 07:39:11;;;;;;;46.45;29.90;;;;;;;;;;4820970;29;20087;-76
2021/12/06 07:41:37;;;;;;;49.78;32.85;;;;;;;;;;4824464;29;20528;-77
2021/12/06 07:44:04;;;;;;;43.45;28.45;;;;;;;;;;4841977;29;20431;-77
2021/12/06 07:46:30;;;;;;;42.65;28.63;;;;;;;;;;4834270;29;20592;-77
2021/12/06 07:48:56;;;;;;;40.35;28.95;;;;;;;;;;4836280;29;20495;-77
2021/12/06 07:51:24;;;;;;;41.25;28.15;;;;;;;;;;4838543;29;20048;-77
2021/12/06 07:53:50;;;;;;;41.20;28.95;;;;;;;;;;4832461;29;20072;-76
2021/12/06 07:56:16;;;;;;;36.03;23.80;;;;;;;;;;4825861;29;20053;-78
2021/12/06 07:58:42;;;;;;;37.22;24.95;;;;;;;;;;4832376;29;20508;-76
2021/12/06 08:01:09;;;;;;;27.60;19.88;;;;;;;;;;4836625;29;20050;-77
2021/12/06 08:03:37;;;;;;;23.33;17.00;;;;;;;;;;4831273;29;20062;-77
2021/12/06 08:06:03;;;;;;;24.00;18.02;;;;;;;;;;4836012;29;20022;-77
2021/12/06 08:08:30;;;;;;;26.63;17.77;;;;;;;;;;4833569;29;20046;-77
2021/12/06 08:10:58;;;;;;;20.15;13.50;;;;;;;;;;4841449;29;20708;-77
2021/12/06 08:13:27;;;;;;;19.73;13.52;;;;;;;;;;4838581;29;20099;-77
2021/12/06 08:15:55;;;;;;;20.73;13.13;;;;;;;;;;4830528;29;20037;-77
2021/12/06 08:18:22;;;;;;;17.60;10.65;;;;;;;;;;4833686;29;20038;-77
2021/12/06 08:20:48;;;;;;;26.38;14.15;;;;;;;;;;4830360;29;20033;-77
2021/12/06 08:23:15;;;;;;;42.13;19.75;;;;;;;;;;4831842;29;20115;-78
2021/12/06 08:25:41;;;;;;;39.45;19.38;;;;;;;;;;4834767;29;20037;-77
2021/12/06 08:28:07;;;;;;;29.60;14.45;;;;;;;;;;4841796;29;20026;-77
2021/12/06 08:30:34;;;;;;;28.95;15.05;;;;;;;;;;4841187;29;20034;-77
2021/12/06 08:33:01;;;;;;;24.10;11.80;;;;;;;;;;4830071;29;20047;-78
2021/12/06 08:35:28;;;;;;;16.70;9.00;;;;;;;;;;4832497;29;20511;-78
2021/12/06 08:37:55;;;;;;;13.57;8.13;;;;;;;;;;4841345;29;20081;-78
2021/12/06 08:40:21;;;;;;;12.68;8.15;;;;;;;;;;4835039;29;20042;-78
2021/12/06 08:42:48;;;;;;;13.13;6.57;;;;;;;;;;4828511;29;20393;-77
2021/12/06 08:45:14;;;;;;;12.10;8.13;;;;;;;;;;4828542;29;20033;-78
2021/12/06 08:47:41;;;;;;;13.88;9.27;;;;;;;;;;4822953;29;20496;-78
2021/12/06 08:50:08;;;;;;;15.10;8.27;;;;;;;;;;4828276;29;20030;-78
2021/12/06 08:52:34;;;;;;;14.63;8.27;;;;;;;;;;4840757;29;20070;-78
2021/12/06 08:55:00;;;;;;;16.17;9.82;;;;;;;;;;4830362;29;20726;-78
2021/12/06 08:57:27;;;;;;;13.25;7.55;;;;;;;;;;4830731;29;20405;-77
2021/12/06 08:59:53;;;;;;;9.65;6.70;;;;;;;;;;4837216;29;20046;-77
2021/12/06 09:02:20;;;;;;;13.38;8.13;;;;;;;;;;4829522;29;20041;-77
2021/12/06 09:04:46;;;;;;;25.55;14.20;;;;;;;;;;4840550;29;20064;-78
2021/12/06 09:07:13;;;;;;;17.77;9.75;;;;;;;;;;4834885;29;20061;-77
2021/12/06 09:09:49;;;;;;;14.55;9.35;;;;;;;;;;4839304;29;20036;-78
2021/12/06 09:12:21;;;;;;;15.73;8.68;;;;;;;;;;4840419;29;20418;-77
2021/12/06 09:14:48;;;;;;;12.63;8.93;;;;;;;;;;4832901;29;20049;-77
2021/12/06 09:17:15;;;;;;;12.63;6.50;;;;;;;;;;4830188;29;20049;-78
2021/12/06 09:19:41;;;;;;;13.98;8.43;;;;;;;;;;4831474;29;20044;-78
2021/12/06 09:22:07;;;;;;;16.08;8.93;;;;;;;;;;4835618;29;20046;-78
2021/12/06 09:24:34;;;;;;;14.80;9.88;;;;;;;;;;4840122;29;20082;-79
2021/12/06 09:27:01;;;;;;;17.35;10.77;;;;;;;;;;4840121;29;20512;-78
2021/12/06 09:29:27;;;;;;;16.25;9.95;;;;;;;;;;4815916;29;20034;-77
2021/12/06 09:31:57;;;;;;;15.18;9.88;;;;;;;;;;4834270;29;20431;-78
2021/12/06 09:34:23;;;;;;;26.80;18.13;;;;;;;;;;4835174;29;20041;-78
2021/12/06 09:36:49;;;;;;;27.55;19.40;;;;;;;;;;4832068;29;20041;-75
2021/12/06 09:39:15;;;;;;;25.33;16.23;;;;;;;;;;4833430;29;20036;-74
2021/12/06 09:41:42;;;;;;;27.45;19.83;;;;;;;;;;4829341;29;20046;-74
2021/12/06 09:44:09;;;;;;;22.73;15.63;;;;;;;;;;4833762;29;20604;-74
2021/12/06 09:46:37;;;;;;;21.85;15.65;;;;;;;;;;4832700;29;20464;-74
2021/12/06 09:49:12;;;;;;;20.80;14.23;;;;;;;;;;4833933;29;20114;-74
2021/12/06 09:51:39;;;;;;;20.58;13.63;;;;;;;;;;4830262;29;20041;-74
2021/12/06 09:54:06;;;;;;;21.08;15.32;;;;;;;;;;4832344;29;20380;-74
2021/12/06 09:56:35;;;;;;;22.17;16.23;;;;;;;;;;4834126;29;20041;-74
2021/12/06 09:59:02;;;;;;;22.17;15.75;;;;;;;;;;4830880;29;20034;-75
2021/12/06 10:01:30;;;;;;;23.17;15.63;;;;;;;;;;4831864;29;20054;-74
2021/12/06 10:03:58;;;;;;;20.92;15.85;;;;;;;;;;4832890;29;20641;-73
2021/12/06 10:06:26;;;;;;;30.80;20.23;;;;;;;;;;4821719;29;20035;-74
2021/12/06 10:08:53;;;;;;;22.40;16.42;;;;;;;;;;4826978;29;20032;-73
2021/12/06 10:11:20;;;;;;;20.75;15.23;;;;;;;;;;4824043;29;20038;-74
2021/12/06 10:13:47;;;;;;;17.98;13.43;;;;;;;;;;4830670;29;20049;-74
2021/12/06 10:16:13;;;;;;;18.27;12.32;;;;;;;;;;4836781;29;20038;-73
2021/12/06 10:18:40;;;;;;;19.75;13.80;;;;;;;;;;4837845;29;20113;-74
2021/12/06 10:21:06;;;;;;;17.52;11.52;;;;;;;;;;4829553;29;20397;-74
2021/12/06 10:23:37;;;;;;;20.10;14.43;;;;;;;;;;4837562;29;20072;-74
2021/12/06 10:26:03;;;;;;;16.35;11.82;;;;;;;;;;4836444;29;20045;-74
2021/12/06 10:28:30;;;;;;;17.90;11.68;;;;;;;;;;4827421;29;20134;-74
2021/12/06 10:30:58;;;;;;;14.93;10.68;;;;;;;;;;4828448;29;20030;-74
2021/12/06 10:33:27;;;;;;;14.90;10.10;;;;;;;;;;4836681;29;20482;-74
2021/12/06 10:35:55;;;;;;;17.17;10.55;;;;;;;;;;4833140;29;20034;-74
2021/12/06 10:38:22;;;;;;;15.27;10.45;;;;;;;;;;4825059;29;20940;-74
2021/12/06 10:40:49;;;;;;;15.48;9.63;;;;;;;;;;4821920;29;20465;-74
2021/12/06 10:43:15;;;;;;;17.63;10.95;;;;;;;;;;4836821;29;20041;-74
2021/12/06 10:45:50;;;;;;;14.70;10.35;;;;;;;;;;4837099;29;20030;-74
2021/12/06 10:48:18;;;;;;;15.20;9.95;;;;;;;;;;4832300;29;20044;-74
2021/12/06 10:50:55;;;;;;;14.52;10.30;;;;;;;;;;4829799;29;20502;-74
2021/12/06 10:53:26;;;;;;;18.83;12.27;;;;;;;;;;4828786;29;20042;-75
2021/12/06 10:55:54;;;;;;;15.68;10.48;;;;;;;;;;4828049;29;20041;-74
2021/12/06 10:58:22;;;;;;;17.08;10.68;;;;;;;;;;4827535;29;20564;-74
2021/12/06 11:01:08;;;;;;;18.63;12.43;;;;;;;;;;4826973;29;20155;-74
2021/12/06 11:03:34;;;;;;;20.17;13.57;;;;;;;;;;4827242;29;20057;-74
2021/12/06 11:06:07;;;;;;;23.77;17.85;;;;;;;;;;4834749;29;20041;-74
2021/12/06 11:08:37;;;;;;;24.73;15.82;;;;;;;;;;4826516;29;20031;-74
2021/12/06 11:11:05;;;;;;;33.72;19.02;;;;;;;;;;4831286;29;20052;-74
2021/12/06 11:13:34;;;;;;;23.13;17.60;;;;;;;;;;4826822;29;20442;-74
2021/12/06 11:16:06;;;;;;;23.65;16.08;;;;;;;;;;4826701;29;20047;-74
2021/12/06 11:18:35;;;;;;;25.85;17.38;;;;;;;;;;4827934;29;20042;-74
2021/12/06 11:21:01;;;;;;;24.55;17.25;;;;;;;;;;4830151;29;20104;-74
2021/12/06 11:23:27;;;;;;;25.17;16.05;;;;;;;;;;4830758;29;20066;-74
2021/12/06 11:25:57;;;;;;;28.83;16.65;;;;;;;;;;4831800;29;20026;-74
2021/12/06 11:28:28;;;;;;;25.60;16.40;;;;;;;;;;4836847;29;20035;-74
2021/12/06 11:31:05;;;;;;;24.58;16.67;;;;;;;;;;4826025;29;20038;-74
2021/12/06 11:33:33;;;;;;;23.77;14.30;;;;;;;;;;4834833;29;20110;-74
2021/12/06 11:36:00;;;;;;;25.73;15.68;;;;;;;;;;4827832;29;20042;-74
2021/12/06 11:38:30;;;;;;;24.60;16.80;;;;;;;;;;4826279;29;20039;-74
2021/12/06 11:40:56;;;;;;;20.48;14.35;;;;;;;;;;4831267;29;20048;-74
2021/12/06 11:43:22;;;;;;;21.10;13.45;;;;;;;;;;4827724;29;20049;-74
2021/12/06 11:45:53;;;;;;;22.58;14.98;;;;;;;;;;4827972;29;20037;-74
2021/12/06 11:48:36;;;;;;;21.35;13.13;;;;;;;;;;4827959;29;20392;-74
2021/12/06 11:51:12;;;;;;;18.13;13.40;;;;;;;;;;4830634;29;20034;-75
2021/12/06 11:53:43;;;;;;;19.27;13.38;;;;;;;;;;4825501;29;20833;-75
2021/12/06 11:56:30;;;;;;;22.02;14.20;;;;;;;;;;4824202;29;20133;-75
2021/12/06 11:59:00;;;;;;;27.83;21.05;;;;;;;;;;4831451;29;20034;-74
2021/12/06 12:01:28;;;;;;;20.35;12.77;;;;;;;;;;4826270;29;20089;-74
2021/12/06 12:03:56;;;;;;;13.77;9.48;;;;;;;;;;4826703;29;20555;-75
2021/12/06 12:06:30;;;;;;;11.00;7.25;;;;;;;;;;4830048;29;20077;-74
2021/12/06 12:09:15;;;;;;;12.85;7.97;;;;;;;;;;4829756;29;20079;-75
2021/12/06 12:12:01;;;;;;;12.30;8.05;;;;;;;;;;4827808;29;20545;-74
2021/12/06 12:14:29;;;;;;;11.20;7.18;;;;;;;;;;4831814;29;20072;-74
2021/12/06 12:16:55;;;;;;;10.27;5.75;;;;;;;;;;4828896;29;20041;-73
2021/12/06 12:19:21;;;;;;;9.55;5.18;;;;;;;;;;4822084;29;20516;-73
2021/12/06 12:21:47;;;;;;;10.45;5.35;;;;;;;;;;4829008;29;20429;-74
2021/12/06 12:24:13;;;;;;;10.80;5.22;;;;;;;;;;4832338;29;20364;-74
2021/12/06 12:26:43;;;;;;;8.00;4.70;;;;;;;;;;4837717;29;20037;-73
2021/12/06 12:29:23;;;;;;;7.97;4.82;;;;;;;;;;4830534;29;20488;-74
2021/12/06 12:31:49;;;;;;;11.48;5.55;;;;;;;;;;4834957;29;20030;-76
2021/12/06 12:34:15;;;;;;;9.88;6.20;;;;;;;;;;4838006;29;20082;-76
2021/12/06 12:36:41;;;;;;;11.65;7.43;;;;;;;;;;4837698;29;20034;-77
2021/12/06 12:39:15;;;;;;;13.43;8.30;;;;;;;;;;4840090;29;20067;-76
2021/12/06 12:41:47;;;;;;;9.07;5.30;;;;;;;;;;4838143;29;20050;-76
2021/12/06 12:44:13;;;;;;;13.68;8.13;;;;;;;;;;4839795;29;20082;-76
2021/12/06 12:46:42;;;;;;;14.15;8.63;;;;;;;;;;4833550;29;20038;-76
2021/12/06 12:49:13;;;;;;;15.30;9.60;;;;;;;;;;4840600;29;20030;-77
2021/12/06 12:51:45;;;;;;;16.60;9.02;;;;;;;;;;4827985;29;20141;-76
2021/12/06 12:54:15;;;;;;;12.87;7.47;;;;;;;;;;4837198;29;20488;-76
2021/12/06 12:56:45;;;;;;;14.63;9.57;;;;;;;;;;4838238;29;20275;-76
2021/12/06 12:59:31;;;;;;;20.17;13.70;;;;;;;;;;4830040;29;20034;-76
2021/12/06 13:02:19;;;;;;;16.90;9.68;;;;;;;;;;4825396;29;20041;-76
2021/12/06 13:05:00;;;;;;;18.40;13.85;;;;;;;;;;4840550;29;20113;-77
2021/12/06 13:07:27;;;;;;;22.35;14.50;;;;;;;;;;4840850;29;20038;-76
2021/12/06 13:09:54;;;;;;;18.67;12.45;;;;;;;;;;4835842;29;20110;-76
2021/12/06 13:12:20;;;;;;;17.27;11.90;;;;;;;;;;4822037;29;20046;-76
2021/12/06 13:14:55;;;;;;;19.33;11.65;;;;;;;;;;4837280;29;20865;-76
2021/12/06 13:17:28;;;;;;;19.50;10.50;;;;;;;;;;4827913;29;20050;-76
2021/12/06 13:20:07;;;;;;;;;;;;;;;;;;4837795;29;20038;-76
2021/12/06 13:22:44;;;;;;;11.68;7.13;;;;;;;;;;4832248;29;19964;-77
2021/12/06 13:25:11;;;;;;;14.52;9.68;;;;;;;;;;4840785;29;20037;-76
2021/12/06 13:27:43;;;;;;;16.30;10.38;;;;;;;;;;4831953;29;20038;-76
2021/12/06 13:30:18;;;;;;;15.23;10.05;;;;;;;;;;4822347;29;20026;-76
2021/12/06 13:32:56;;;;;;;13.93;8.80;;;;;;;;;;4821702;29;20142;-76
2021/12/06 13:35:24;;;;;;;15.45;11.02;;;;;;;;;;4835591;29;20082;-76
2021/12/06 13:38:02;;;;;;;12.50;7.57;;;;;;;;;;4827793;29;20050;-77
2021/12/06 13:40:29;;;;;;;23.55;16.05;;;;;;;;;;4836726;29;20034;-76
2021/12/06 13:42:55;;;;;;;11.85;8.05;;;;;;;;;;4831883;29;20050;-76
2021/12/06 13:45:26;;;;;;;15.18;8.63;;;;;;;;;;4838721;29;20521;-76
2021/12/06 13:48:08;;;;;;;13.10;8.27;;;;;;;;;;4829771;29;20042;-76
2021/12/06 13:50:34;;;;;;;15.80;8.07;;;;;;;;;;4835457;29;20055;-76
2021/12/06 13:53:00;;;;;;;14.23;9.25;;;;;;;;;;4836405;29;20189;-77
2021/12/06 13:55:30;;;;;;;17.48;10.55;;;;;;;;;;4836130;29;20045;-76
2021/12/06 13:58:07;;;;;;;14.90;8.07;;;;;;;;;;4833500;29;20038;-76
2021/12/06 14:00:42;;;;;;;11.77;6.50;;;;;;;;;;4835456;29;20050;-76
2021/12/06 14:03:12;;;;;;;10.95;5.50;;;;;;;;;;4831079;29;20214;-76
2021/12/06 14:05:41;;;;;;;12.93;6.30;;;;;;;;;;4842958;29;20025;-76
2021/12/06 14:08:07;;;;;;;12.05;6.63;;;;;;;;;;4830526;29;20038;-77
2021/12/06 14:10:33;;;;;;;11.68;6.57;;;;;;;;;;4822904;29;20102;-76
2021/12/06 14:12:59;;;;;;;11.38;7.00;;;;;;;;;;4838766;29;20043;-76
2021/12/06 14:15:36;;;;;;;13.90;7.35;;;;;;;;;;4838811;29;20033;-77
2021/12/06 14:18:04;;;;;;;12.02;7.18;;;;;;;;;;4831265;29;20053;-76
2021/12/06 14:20:30;;;;;;;10.00;6.93;;;;;;;;;;4843480;29;20029;-77
2021/12/06 14:22:56;;;;;;;13.18;7.78;;;;;;;;;;4836547;29;20041;-76
2021/12/06 14:25:22;;;;;;;13.60;8.77;;;;;;;;;;4830475;29;20034;-77
2021/12/06 14:27:49;;;;;;;18.73;12.45;;;;;;;;;;4835644;29;20045;-76
2021/12/06 14:30:20;;;;;;;15.85;9.40;;;;;;;;;;4831938;29;20187;-77
2021/12/06 14:32:55;;;;;;;15.77;9.50;;;;;;;;;;4836900;29;20477;-77
2021/12/06 14:35:22;;;;;;;15.02;8.35;;;;;;;;;;4829104;29;20050;-76
2021/12/06 14:37:49;;;;;;;15.77;7.88;;;;;;;;;;4837361;29;20053;-76